createdAt,value
2023-03-24T00:01:14.589Z,95558.94
2023-03-24T00:04:01.167Z,95560.66
2023-03-24T00:06:49.411Z,95558.81
2023-03-24T00:09:36.703Z,95556.00
2023-03-24T00:12:22.511Z,95551.34
2023-03-24T00:15:12.328Z,95565.41
2023-03-24T00:17:58.463Z,95558.50
2023-03-24T00:20:46.356Z,95556.91
2023-03-24T00:23:33.982Z,95554.25
2023-03-24T00:26:20.546Z,95560.03
2023-03-24T00:29:08.934Z,95568.47
2023-03-24T00:31:54.734Z,95558.34
2023-03-24T00:34:40.580Z,95552.75
2023-03-24T00:37:26.864Z,95559.00
2023-03-24T00:40:16.465Z,95553.09
2023-03-24T00:43:03.778Z,95551.28
2023-03-24T00:45:49.709Z,95544.06
2023-03-24T00:48:38.299Z,95551.06
2023-03-24T00:51:25.327Z,95554.84
2023-03-24T00:54:12.792Z,95539.88
2023-03-24T00:56:58.883Z,95549.50
2023-03-24T00:59:48.743Z,95546.66
2023-03-24T01:02:34.792Z,95546.94
2023-03-24T01:05:25.745Z,95548.13
2023-03-24T01:08:11.506Z,95552.47
2023-03-24T01:10:57.410Z,95554.13
2023-03-24T01:13:43.402Z,95533.84
2023-03-24T01:16:29.120Z,95547.56
2023-03-24T01:19:15.887Z,95548.94
2023-03-24T01:22:02.397Z,95534.06
2023-03-24T01:24:49.277Z,95542.63
2023-03-24T01:27:37.029Z,95542.97
2023-03-24T01:30:28.544Z,95543.34
2023-03-24T01:33:14.304Z,95535.84
2023-03-24T01:36:00.111Z,95543.66
2023-03-24T01:38:46.099Z,95546.06
2023-03-24T01:41:35.584Z,95546.13
2023-03-24T01:44:24.536Z,95535.41
2023-03-24T01:47:10.576Z,95536.56
2023-03-24T01:50:02.662Z,95541.41
2023-03-24T01:52:50.420Z,95539.91
2023-03-24T01:55:36.028Z,95538.59
2023-03-24T01:58:25.576Z,95548.03
2023-03-24T02:01:30.876Z,95544.84
2023-03-24T02:04:25.863Z,95546.50
2023-03-24T02:07:23.709Z,95537.69
2023-03-24T02:10:11.091Z,95545.50
2023-03-24T02:12:57.313Z,95536.88
2023-03-24T02:16:10.493Z,95542.25
2023-03-24T02:19:12.557Z,95532.84
2023-03-24T02:22:29.503Z,95533.66
2023-03-24T02:25:44.959Z,95527.19
2023-03-24T02:28:41.466Z,95528.56
2023-03-24T02:31:51.221Z,95527.75
2023-03-24T02:35:03.850Z,95522.94
2023-03-24T02:38:11.992Z,95527.03
2023-03-24T02:41:17.192Z,95527.59
2023-03-24T02:44:21.614Z,95528.72
2023-03-24T02:47:15.356Z,95523.44
2023-03-24T02:50:16.779Z,95523.19
2023-03-24T02:53:09.982Z,95537.38
2023-03-24T02:56:12.558Z,95533.88
2023-03-24T02:59:03.331Z,95525.91
2023-03-24T03:01:58.916Z,95527.25
2023-03-24T03:05:19.970Z,95530.22
2023-03-24T03:08:10.023Z,95527.00
2023-03-24T03:10:57.639Z,95529.41
2023-03-24T03:14:08.518Z,95539.38
2023-03-24T03:17:05.030Z,95527.09
2023-03-24T03:20:08.054Z,95533.56
2023-03-24T03:22:57.016Z,95540.56
2023-03-24T03:25:50.590Z,95537.88
2023-03-24T03:28:39.119Z,95540.81
2023-03-24T03:31:30.235Z,95541.63
2023-03-24T03:34:49.733Z,95542.44
2023-03-24T03:37:55.575Z,95550.28
2023-03-24T03:40:42.382Z,95549.69
2023-03-24T03:43:35.607Z,95547.06
2023-03-24T03:46:22.213Z,95549.47
2023-03-24T03:49:09.075Z,95556.72
2023-03-24T03:51:55.808Z,95550.81
2023-03-24T03:54:42.861Z,95542.00
2023-03-24T03:57:29.075Z,95545.44
2023-03-24T04:00:36.940Z,95548.13
2023-03-24T04:04:10.640Z,95551.94
2023-03-24T04:07:33.713Z,95549.81
2023-03-24T04:11:21.279Z,95551.19
2023-03-24T04:14:55.006Z,95550.09
2023-03-24T04:18:17.416Z,95556.00
2023-03-24T04:21:51.804Z,95559.75
2023-03-24T04:24:52.007Z,95565.44
2023-03-24T04:28:05.648Z,95556.91
2023-03-24T04:31:01.423Z,95564.41
2023-03-24T04:33:58.456Z,95562.56
2023-03-24T04:37:06.878Z,95567.66
2023-03-24T04:40:06.002Z,95564.94
2023-03-24T04:42:53.703Z,95567.63
2023-03-24T04:45:50.175Z,95564.94
2023-03-24T04:48:49.225Z,95568.72
2023-03-24T04:51:52.089Z,95560.16
2023-03-24T04:54:42.069Z,95564.44
2023-03-24T04:57:29.082Z,95563.94
2023-03-24T05:00:19.961Z,95574.38
2023-03-24T05:03:06.119Z,95581.31
2023-03-24T05:05:53.241Z,95590.16
2023-03-24T05:08:39.746Z,95580.00
2023-03-24T05:11:27.360Z,95580.00
2023-03-24T05:14:21.772Z,95587.22
2023-03-24T05:17:07.832Z,95586.41
2023-03-24T05:19:53.577Z,95587.47
2023-03-24T05:22:41.017Z,95592.84
2023-03-24T05:25:27.065Z,95597.66
2023-03-24T05:28:12.877Z,95596.06
2023-03-24T05:30:59.037Z,95598.72
2023-03-24T05:34:03.397Z,95601.94
2023-03-24T05:36:51.289Z,95606.75
2023-03-24T05:39:40.432Z,95604.06
2023-03-24T05:42:49.271Z,95606.22
2023-03-24T05:45:35.610Z,95604.06
2023-03-24T05:48:56.436Z,95611.56
2023-03-24T05:51:49.548Z,95593.31
2023-03-24T05:54:36.364Z,95613.16
2023-03-24T05:57:34.839Z,95599.72
2023-03-24T06:00:39.069Z,95605.34
2023-03-24T06:03:34.710Z,95597.81
2023-03-24T06:06:30.997Z,95596.44
2023-03-24T06:09:17.062Z,95594.84
2023-03-24T06:12:04.873Z,95605.53
2023-03-24T06:14:54.749Z,95602.78
2023-03-24T06:17:43.252Z,95599.84
2023-03-24T06:20:39.192Z,95600.59
2023-03-24T06:23:28.973Z,95605.34
2023-03-24T06:26:25.475Z,95603.69
2023-03-24T06:29:18.261Z,95603.91
2023-03-24T06:32:05.728Z,95601.47
2023-03-24T06:34:57.838Z,95610.53
2023-03-24T06:37:57.787Z,95617.19
2023-03-24T06:40:43.469Z,95608.06
2023-03-24T06:43:30.153Z,95614.47
2023-03-24T06:46:16.289Z,95617.91
2023-03-24T06:49:04.922Z,95612.25
2023-03-24T06:51:50.869Z,95613.50
2023-03-24T06:54:37.691Z,95616.41
2023-03-24T06:57:23.459Z,95618.78
2023-03-24T07:00:48.784Z,95616.00
2023-03-24T07:03:46.449Z,95611.94
2023-03-24T07:06:43.060Z,95611.03
2023-03-24T07:09:37.320Z,95613.94
2023-03-24T07:12:23.195Z,95610.09
2023-03-24T07:15:09.574Z,95606.25
2023-03-24T07:17:55.666Z,95600.53
2023-03-24T07:21:02.358Z,95613.03
2023-03-24T07:23:49.194Z,95607.31
2023-03-24T07:26:38.439Z,95603.97
2023-03-24T07:29:37.387Z,95610.84
2023-03-24T07:32:39.452Z,95604.81
2023-03-24T07:35:25.523Z,95605.78
2023-03-24T07:38:11.356Z,95603.25
2023-03-24T07:41:01.276Z,95613.03
2023-03-24T07:43:49.551Z,95611.56
2023-03-24T07:46:58.059Z,95601.66
2023-03-24T07:49:43.665Z,95597.50
2023-03-24T07:52:30.949Z,95593.56
2023-03-24T07:55:17.204Z,95592.03
2023-03-24T07:58:16.354Z,95595.28
2023-03-24T08:01:18.332Z,95588.91
2023-03-24T08:04:07.464Z,95587.28
2023-03-24T08:07:13.912Z,95579.50
2023-03-24T08:09:59.845Z,95585.22
2023-03-24T08:12:46.336Z,95573.94
2023-03-24T08:15:32.399Z,95577.63
2023-03-24T08:18:18.127Z,95573.31
2023-03-24T08:21:04.434Z,95565.22
2023-03-24T08:23:50.348Z,95556.16
2023-03-24T08:26:36.392Z,95568.19
2023-03-24T08:29:22.195Z,95560.88
2023-03-24T08:32:07.903Z,95547.13
2023-03-24T08:34:54.347Z,95557.47
2023-03-24T08:37:43.374Z,95560.91
2023-03-24T08:40:29.911Z,95567.03
2023-03-24T08:43:16.194Z,95558.06
2023-03-24T08:46:03.196Z,95559.22
2023-03-24T08:48:49.135Z,95553.09
2023-03-24T08:51:35.824Z,95529.56
2023-03-24T08:54:23.734Z,95540.16
2023-03-24T08:57:09.317Z,95545.66
2023-03-24T08:59:55.062Z,95536.25
2023-03-24T09:02:42.189Z,95524.00
2023-03-24T09:05:43.401Z,95516.31
2023-03-24T09:08:31.624Z,95526.50
2023-03-24T09:11:19.407Z,95519.59
2023-03-24T09:14:04.987Z,95510.34
2023-03-24T09:16:51.541Z,95510.75
2023-03-24T09:19:38.154Z,95514.97
2023-03-24T09:22:24.134Z,95507.25
2023-03-24T09:25:11.386Z,95509.53
2023-03-24T09:27:57.557Z,95499.31
2023-03-24T09:30:44.050Z,95500.16
2023-03-24T09:33:30.740Z,95494.59
2023-03-24T09:36:16.402Z,95493.63
2023-03-24T09:39:02.097Z,95492.00
2023-03-24T09:41:50.558Z,95484.94
2023-03-24T09:44:41.517Z,95484.84
2023-03-24T09:47:33.777Z,95483.66
2023-03-24T09:50:26.716Z,95487.06
2023-03-24T09:53:53.418Z,95478.28
2023-03-24T09:56:41.473Z,95474.97
2023-03-24T09:59:40.621Z,95477.44
2023-03-24T10:02:29.325Z,95460.28
2023-03-24T10:05:23.359Z,95465.66
2023-03-24T10:08:29.446Z,95462.88
2023-03-24T10:11:47.899Z,95458.06
2023-03-24T10:15:37.926Z,95446.03
2023-03-24T10:18:50.383Z,95450.66
2023-03-24T10:21:39.487Z,95454.25
2023-03-24T10:24:38.235Z,95434.22
2023-03-24T10:27:29.292Z,95442.66
2023-03-24T10:30:22.158Z,95444.97
2023-03-24T10:33:11.688Z,95436.66
2023-03-24T10:36:04.710Z,95432.63
2023-03-24T10:38:52.749Z,95431.34
2023-03-24T10:41:39.733Z,95430.47
2023-03-24T10:44:27.100Z,95424.97
2023-03-24T10:47:14.256Z,95421.44
2023-03-24T10:50:12.704Z,95415.84
2023-03-24T10:53:00.414Z,95414.19
2023-03-24T10:55:47.913Z,95410.19
2023-03-24T10:58:39.035Z,95404.13
2023-03-24T11:01:25.071Z,95405.69
2023-03-24T11:04:16.486Z,95403.97
2023-03-24T11:07:14.167Z,95390.50
2023-03-24T11:10:15.576Z,95391.56
2023-03-24T11:13:04.085Z,95389.13
2023-03-24T11:15:57.165Z,95382.69
2023-03-24T11:19:02.885Z,95377.47
2023-03-24T11:21:50.364Z,95359.69
2023-03-24T11:24:37.865Z,95360.34
2023-03-24T11:27:23.911Z,95365.63
2023-03-24T11:30:13.482Z,95358.66
2023-03-24T11:33:00.031Z,95359.84
2023-03-24T11:35:50.335Z,95355.09
2023-03-24T11:38:42.931Z,95345.50
2023-03-24T11:41:28.655Z,95327.56
2023-03-24T11:44:17.244Z,95332.91
2023-03-24T11:47:16.573Z,95325.47
2023-03-24T11:50:12.609Z,95318.06
2023-03-24T11:53:16.616Z,95317.81
2023-03-24T11:56:17.643Z,95322.34
2023-03-24T11:59:09.408Z,95312.44
2023-03-24T12:01:59.550Z,95307.25
2023-03-24T12:05:04.912Z,95304.63
2023-03-24T12:08:01.900Z,95290.75
2023-03-24T12:11:06.682Z,95296.88
2023-03-24T12:13:53.034Z,95291.00
2023-03-24T12:16:54.856Z,95293.81
2023-03-24T12:19:53.399Z,95286.69
2023-03-24T12:22:47.834Z,95281.66
2023-03-24T12:25:47.286Z,95273.22
2023-03-24T12:28:54.109Z,95271.94
2023-03-24T12:31:49.531Z,95264.84
2023-03-24T12:34:53.585Z,95273.59
2023-03-24T12:37:57.841Z,95260.38
2023-03-24T12:41:02.210Z,95255.94
2023-03-24T12:44:39.438Z,95244.72
2023-03-24T12:47:50.832Z,95244.53
2023-03-24T12:51:06.315Z,95234.47
2023-03-24T12:54:31.406Z,95234.47
2023-03-24T12:57:18.766Z,95226.06
2023-03-24T13:00:13.755Z,95216.88
2023-03-24T13:03:22.285Z,95217.44
2023-03-24T13:06:35.304Z,95212.19
2023-03-24T13:09:31.512Z,95211.31
2023-03-24T13:12:21.067Z,95205.16
2023-03-24T13:15:10.366Z,95193.34
2023-03-24T13:17:55.968Z,95187.44
2023-03-24T13:20:44.664Z,95188.78
2023-03-24T13:23:44.038Z,95183.66
2023-03-24T13:26:39.514Z,95184.66
2023-03-24T13:29:49.857Z,95178.13
2023-03-24T13:32:48.373Z,95178.06
2023-03-24T13:35:56.438Z,95177.66
2023-03-24T13:38:53.575Z,95163.09
2023-03-24T13:41:39.897Z,95160.25
2023-03-24T13:48:10.517Z,95157.78
2023-03-24T13:51:26.782Z,95160.03
2023-03-24T13:54:18.555Z,95154.78
2023-03-24T13:57:08.938Z,95145.34
2023-03-24T14:00:14.452Z,95143.31
2023-03-24T14:03:16.958Z,95138.94
2023-03-24T14:06:05.454Z,95144.88
2023-03-24T14:08:53.774Z,95137.75
2023-03-24T14:11:43.349Z,95135.72
2023-03-24T14:14:31.358Z,95133.69
2023-03-24T14:17:17.249Z,95135.88
2023-03-24T14:20:12.528Z,95128.06
2023-03-24T14:22:59.058Z,95120.47
2023-03-24T14:26:17.398Z,95117.88
2023-03-24T14:29:03.977Z,95108.50
2023-03-24T14:31:51.986Z,95113.56
2023-03-24T14:34:37.771Z,95114.72
2023-03-24T14:37:24.727Z,95111.31
2023-03-24T14:40:44.866Z,95103.53
2023-03-24T14:43:56.427Z,95110.41
2023-03-24T14:46:50.363Z,95101.81
2023-03-24T14:49:34.766Z,95106.06
2023-03-24T14:52:36.535Z,95102.69
2023-03-24T14:55:24.187Z,95094.53
2023-03-24T14:58:22.263Z,95096.53
2023-03-24T15:01:09.464Z,95100.13
2023-03-24T15:04:07.677Z,95089.59
2023-03-24T15:06:54.042Z,95092.63
2023-03-24T15:09:50.545Z,95083.50
2023-03-24T15:12:36.567Z,95089.19
2023-03-24T15:15:25.892Z,95082.97
2023-03-24T15:18:26.813Z,95079.09
2023-03-24T15:21:24.025Z,95072.00
2023-03-24T15:24:34.291Z,95079.44
2023-03-24T15:27:27.260Z,95076.63
2023-03-24T15:30:16.554Z,95085.97
2023-03-24T15:33:03.616Z,95078.06
2023-03-24T15:35:57.101Z,95074.06
2023-03-24T15:38:50.054Z,95074.00
2023-03-24T15:41:36.021Z,95069.22
2023-03-24T15:44:31.892Z,95062.50
2023-03-24T15:47:22.938Z,95076.91
2023-03-24T15:50:32.354Z,95069.03
2023-03-24T15:53:18.235Z,95069.38
2023-03-24T15:56:28.651Z,95061.84
2023-03-24T15:59:15.704Z,95064.53
2023-03-24T16:02:03.817Z,95060.97
2023-03-24T16:05:00.229Z,95063.31
2023-03-24T16:08:06.275Z,95060.16
2023-03-24T16:11:00.824Z,95056.53
2023-03-24T16:13:46.593Z,95059.22
2023-03-24T16:16:36.951Z,95063.09
2023-03-24T16:19:23.107Z,95054.34
2023-03-24T16:22:12.662Z,95058.25
2023-03-24T16:24:59.257Z,95059.72
2023-03-24T16:27:45.274Z,95067.16
2023-03-24T16:30:37.856Z,95061.19
2023-03-24T16:33:36.327Z,95066.63
2023-03-24T16:36:23.545Z,95071.28
2023-03-24T16:39:18.088Z,95061.03
2023-03-24T16:42:04.401Z,95064.09
2023-03-24T16:44:50.392Z,95056.59
2023-03-24T16:47:38.428Z,95062.41
2023-03-24T16:50:42.376Z,95056.84
2023-03-24T16:53:28.279Z,95061.84
2023-03-24T16:56:16.750Z,95055.88
2023-03-24T16:59:03.859Z,95064.81
2023-03-24T17:01:52.368Z,95064.00
2023-03-24T17:04:38.447Z,95069.00
2023-03-24T17:07:24.029Z,95068.19
2023-03-24T17:10:10.236Z,95057.13
2023-03-24T17:31:28.553Z,95069.13
2023-03-24T17:52:55.184Z,95087.81
2023-03-24T17:55:41.334Z,95088.84
2023-03-24T17:58:27.120Z,95095.81
2023-03-24T18:01:14.969Z,95099.06
2023-03-24T18:04:01.356Z,95098.41
2023-03-24T18:06:47.862Z,95106.69
2023-03-24T18:09:34.237Z,95110.16
2023-03-24T18:12:20.734Z,95105.81
2023-03-24T18:15:07.574Z,95112.31
2023-03-24T18:17:53.969Z,95114.59
2023-03-24T18:20:39.911Z,95117.59
2023-03-24T18:23:26.526Z,95118.25
2023-03-24T18:26:12.285Z,95122.84
2023-03-24T18:28:58.148Z,95120.72
2023-03-24T18:31:43.978Z,95121.75
2023-03-24T18:34:30.876Z,95119.63
2023-03-24T18:37:16.991Z,95126.09
2023-03-24T18:40:07.409Z,95127.66
2023-03-24T18:42:53.438Z,95135.34
2023-03-24T18:45:39.332Z,95141.84
2023-03-24T18:48:25.246Z,95161.28
2023-03-24T18:51:11.624Z,95144.75
2023-03-24T18:53:57.448Z,95140.34
2023-03-24T18:56:43.593Z,95150.81
2023-03-24T18:59:31.196Z,95150.66
2023-03-24T19:02:17.247Z,95159.41
2023-03-24T19:05:04.216Z,95162.47
2023-03-24T19:07:52.341Z,95162.38
2023-03-24T19:10:38.316Z,95162.22
2023-03-24T19:13:24.177Z,95177.72
2023-03-24T19:16:11.954Z,95171.34
2023-03-24T19:19:01.025Z,95175.06
2023-03-24T19:21:47.407Z,95178.06
2023-03-24T19:24:42.928Z,95181.78
2023-03-24T19:27:29.355Z,95185.06
2023-03-24T19:30:17.360Z,95183.59
2023-03-24T19:33:03.648Z,95191.25
2023-03-24T19:35:51.040Z,95195.06
2023-03-24T19:38:38.780Z,95200.78
2023-03-24T19:41:26.613Z,95196.44
2023-03-24T19:44:12.777Z,95196.72
2023-03-24T19:46:58.857Z,95198.56
2023-03-24T19:49:44.894Z,95194.09
2023-03-24T19:52:31.044Z,95199.78
2023-03-24T19:55:17.069Z,95191.88
2023-03-24T19:58:03.894Z,95199.16
2023-03-24T20:00:50.896Z,95222.22
2023-03-24T20:03:37.556Z,95223.69
2023-03-24T20:06:23.758Z,95227.84
2023-03-24T20:09:09.556Z,95211.56
2023-03-24T20:11:55.575Z,95213.47
2023-03-24T20:14:41.848Z,95224.72
2023-03-24T20:17:29.777Z,95222.19
2023-03-24T20:20:18.311Z,95215.75
2023-03-24T20:23:04.787Z,95214.75
2023-03-24T20:25:52.322Z,95224.66
2023-03-24T20:28:38.413Z,95227.63
2023-03-24T20:31:28.101Z,95222.00
2023-03-24T20:34:13.993Z,95236.75
2023-03-24T20:37:00.238Z,95239.72
2023-03-24T20:39:46.515Z,95228.63
2023-03-24T20:42:33.769Z,95231.00
2023-03-24T20:45:20.014Z,95226.16
2023-03-24T20:48:06.785Z,95233.53
2023-03-24T20:50:53.286Z,95231.47
2023-03-24T20:53:40.794Z,95232.47
2023-03-24T20:56:26.710Z,95227.28
2023-03-24T20:59:13.858Z,95220.84
2023-03-24T21:02:01.996Z,95239.34
2023-03-24T21:04:48.007Z,95244.56
2023-03-24T21:07:34.373Z,95244.34
2023-03-24T21:10:20.479Z,95245.84
2023-03-24T21:13:08.813Z,95247.66
2023-03-24T21:15:54.957Z,95242.09
2023-03-24T21:18:42.773Z,95236.88
2023-03-24T21:21:29.242Z,95247.66
2023-03-24T21:24:16.225Z,95240.50
2023-03-24T21:27:02.305Z,95232.59
2023-03-24T21:29:48.237Z,95238.69
2023-03-24T21:32:36.682Z,95235.31
2023-03-24T21:35:25.192Z,95240.06
2023-03-24T21:38:11.868Z,95226.69
2023-03-24T21:40:58.698Z,95236.75
2023-03-24T21:43:51.380Z,95223.28
2023-03-24T21:46:37.728Z,95240.53
2023-03-24T21:49:23.497Z,95241.06
2023-03-24T21:52:09.451Z,95239.81
2023-03-24T21:54:58.237Z,95240.03
2023-03-24T21:57:45.590Z,95237.31
2023-03-24T22:00:35.330Z,95235.28
2023-03-24T22:03:21.943Z,95233.69
2023-03-24T22:06:10.816Z,95222.56
2023-03-24T22:08:58.729Z,95230.41
2023-03-24T22:11:45.497Z,95229.78
2023-03-24T22:14:31.738Z,95232.84
2023-03-24T22:17:17.730Z,95230.03
2023-03-24T22:20:09.300Z,95227.97
2023-03-24T22:22:56.297Z,95234.75
2023-03-24T22:25:42.049Z,95238.63
2023-03-24T22:28:29.028Z,95232.75
2023-03-24T22:31:16.898Z,95236.59
2023-03-24T22:34:02.892Z,95232.28
2023-03-24T22:36:48.618Z,95232.84
2023-03-24T22:39:34.271Z,95230.19
2023-03-24T22:42:20.296Z,95241.75
2023-03-24T22:45:07.030Z,95246.25
2023-03-24T22:47:53.068Z,95235.03
2023-03-24T22:50:42.244Z,95236.47
2023-03-24T22:53:28.599Z,95233.06
2023-03-24T22:56:15.509Z,95239.16
2023-03-24T22:59:01.571Z,95242.75
2023-03-24T23:01:53.663Z,95247.00
2023-03-24T23:04:48.407Z,95240.63
2023-03-24T23:07:35.001Z,95241.84
2023-03-24T23:10:21.440Z,95230.59
2023-03-24T23:13:07.249Z,95230.97
2023-03-24T23:15:53.813Z,95223.22
2023-03-24T23:18:39.563Z,95223.59
2023-03-24T23:21:25.258Z,95221.44
2023-03-24T23:24:11.284Z,95231.47
2023-03-24T23:26:57.242Z,95240.50
2023-03-24T23:29:43.101Z,95237.66
2023-03-24T23:32:28.864Z,95239.47
2023-03-24T23:35:15.571Z,95242.84
2023-03-24T23:38:02.540Z,95243.53
2023-03-24T23:40:48.693Z,95239.84
2023-03-24T23:43:35.599Z,95240.31
2023-03-24T23:46:22.226Z,95245.59
2023-03-24T23:49:09.650Z,95238.75
2023-03-24T23:51:55.670Z,95238.28
2023-03-24T23:54:41.950Z,95240.69
2023-03-24T23:57:28.010Z,95242.44
